Estación Meteorológica Peña el Pijo (Robertgarden) [ 12/11/19 23:04:59 CET ]

Fecha Hora Presion(HPa) Temp (°C) Humedad % Rocio (°C) Viento ( m/s) Direccion Lluvia 1Hora(mm) Lluvia 24H(mm) LLuvia Total(mm)
2019-Nov-21 01:01:47 998.600 4.8 86 2.6       1.03 32.63
2019-Nov-21 02:02:17 998.400 4.8 87 2.8       1.03 32.63
2019-Nov-21 03:02:31 998.500 4.9 87 2.9     0.51 1.55 33.15
2019-Nov-21 04:03:22 998.400 4.9 87 2.9     0.51 2.07 33.67
2019-Nov-21 05:02:20 998.200 4.9 88 3.1       2.07 33.67
2019-Nov-21 06:02:06 997.900 4.5 88 2.7       2.07 33.67
2019-Nov-21 07:01:41 998.300 4.5 88 2.7       2.07 33.67
2019-Nov-21 08:01:47 998.700 4.9 89 3.2       2.07 33.67
2019-Nov-21 09:01:44 999.100 5.3 89 3.6       2.07 33.67
2019-Nov-21 10:01:52 999.500 6.2 89 4.5       2.07 33.67
2019-Nov-21 11:01:56 999.400 7.6 90 6.1       2.07 33.67
2019-Nov-21 12:01:44 999.400 8.2 89 6.5       2.07 33.67
2019-Nov-21 13:01:56 998.700 8.5 86 6.3       2.07 33.67
2019-Nov-21 14:01:44 998.000 9.9 83 7.1       2.07 33.67
2019-Nov-21 15:01:41 997.500 11.4 73 6.7       2.07 33.67
2019-Nov-21 16:01:43 997.600 10.4 74 6.0       2.07 33.67
2019-Nov-21 17:01:40 997.500 9.9 76 5.8       1.03 33.67
2019-Nov-21 18:01:39 997.600 9.0 78 5.3       1.03 33.67
2019-Nov-21 19:01:45 997.800 8.5 79 5.1       1.03 33.67
2019-Nov-21 20:01:40 998.100 7.6 82 4.7       1.03 33.67
2019-Nov-21 21:01:39 998.200 7.1 84 4.6     0.51 1.55 34.18
2019-Nov-21 22:02:01 998.100 6.6 85 4.2       1.55 34.18
2019-Nov-21 23:01:39 998.000 5.9 86 3.7       1.55 34.18

Temperatura Máxima:11°    Temperatura Mínima:
Presión Máxima:999.500 Hpa    Presión Mínima:997.500 Hpa


Volver